createdAt,value
2023-07-18T00:01:45.313Z,14.91
2023-07-18T00:04:13.541Z,14.95
2023-07-18T00:06:43.105Z,14.81
2023-07-18T00:09:10.891Z,14.76
2023-07-18T00:11:38.672Z,14.72
2023-07-18T00:14:08.262Z,14.73
2023-07-18T00:16:36.226Z,14.73
2023-07-18T00:19:04.235Z,14.68
2023-07-18T00:21:32.481Z,14.69
2023-07-18T00:24:00.674Z,14.70
2023-07-18T00:26:28.685Z,14.59
2023-07-18T00:28:56.867Z,14.75
2023-07-18T00:31:26.237Z,14.73
2023-07-18T00:33:54.094Z,14.66
2023-07-18T00:36:23.069Z,14.69
2023-07-18T00:38:51.339Z,14.71
2023-07-18T00:41:19.381Z,14.60
2023-07-18T00:43:47.381Z,14.58
2023-07-18T00:46:16.941Z,14.63
2023-07-18T00:48:46.564Z,14.57
2023-07-18T00:51:14.618Z,14.63
2023-07-18T00:53:43.095Z,14.57
2023-07-18T00:56:11.051Z,14.54
2023-07-18T00:58:38.969Z,14.43
2023-07-18T01:01:07.972Z,14.48
2023-07-18T01:03:38.740Z,14.52
2023-07-18T01:06:08.422Z,14.49
2023-07-18T01:08:37.088Z,14.47
2023-07-18T01:11:06.764Z,14.45
2023-07-18T01:13:34.718Z,14.51
2023-07-18T01:16:02.794Z,14.47
2023-07-18T01:18:30.538Z,14.59
2023-07-18T01:20:59.434Z,14.56
2023-07-18T01:23:30.040Z,14.53
2023-07-18T01:25:58.782Z,14.51
2023-07-18T01:28:26.650Z,14.42
2023-07-18T01:30:56.362Z,14.50
2023-07-18T01:33:24.204Z,14.44
2023-07-18T01:35:52.818Z,14.44
2023-07-18T01:38:20.533Z,14.35
2023-07-18T01:40:51.076Z,14.33
2023-07-18T01:43:18.865Z,14.26
2023-07-18T01:45:46.609Z,14.26
2023-07-18T01:48:14.438Z,14.28
2023-07-18T01:54:55.613Z,14.29
2023-07-18T01:57:27.097Z,14.29
2023-07-18T01:59:55.396Z,14.29
2023-07-18T02:02:23.661Z,14.23
2023-07-18T02:04:51.501Z,14.32
2023-07-18T02:07:19.442Z,14.22
2023-07-18T02:09:47.667Z,14.32
2023-07-18T02:12:15.453Z,14.36
2023-07-18T02:14:44.648Z,14.35
2023-07-18T02:17:12.606Z,14.28
2023-07-18T02:19:41.384Z,14.32
2023-07-18T02:22:09.566Z,14.19
2023-07-18T02:24:37.929Z,14.28
2023-07-18T02:27:06.697Z,14.23
2023-07-18T02:29:34.688Z,14.21
2023-07-18T02:32:04.113Z,14.23
2023-07-18T02:34:31.923Z,14.33
2023-07-18T02:36:59.805Z,14.26
2023-07-18T02:39:31.471Z,14.34
2023-07-18T02:41:59.475Z,14.41
2023-07-18T02:44:27.873Z,14.37
2023-07-18T02:46:55.703Z,14.36
2023-07-18T02:49:25.120Z,14.39
2023-07-18T02:51:54.472Z,14.40
2023-07-18T02:54:22.428Z,14.41
2023-07-18T02:56:50.519Z,14.46
2023-07-18T02:59:21.986Z,14.46
2023-07-18T03:01:51.144Z,14.37
2023-07-18T03:04:19.068Z,14.28
2023-07-18T03:06:52.399Z,14.35
2023-07-18T03:09:22.631Z,14.38
2023-07-18T03:11:52.066Z,14.23
2023-07-18T03:14:20.694Z,14.33
2023-07-18T03:16:49.054Z,14.23
2023-07-18T03:19:16.886Z,14.22
2023-07-18T03:21:45.805Z,14.25
2023-07-18T03:24:14.964Z,14.20
2023-07-18T03:26:42.984Z,14.13
2023-07-18T03:29:10.799Z,14.18
2023-07-18T03:31:40.680Z,14.21
2023-07-18T03:34:08.705Z,14.19
2023-07-18T03:36:38.340Z,14.18
2023-07-18T03:39:07.115Z,14.14
2023-07-18T03:41:36.556Z,14.18
2023-07-18T03:44:05.308Z,14.21
2023-07-18T03:46:33.306Z,14.15
2023-07-18T03:49:01.079Z,14.25
2023-07-18T03:51:30.536Z,14.24
2023-07-18T03:54:02.235Z,14.24
2023-07-18T03:56:32.322Z,14.25
2023-07-18T03:59:02.094Z,14.25
2023-07-18T04:01:29.909Z,14.12
2023-07-18T04:03:57.683Z,14.08
2023-07-18T04:06:25.570Z,14.14
2023-07-18T04:08:55.321Z,14.06
2023-07-18T04:11:23.326Z,14.07
2023-07-18T04:13:51.226Z,14.09
2023-07-18T04:16:20.442Z,14.12
2023-07-18T04:18:48.320Z,14.16
2023-07-18T04:21:16.326Z,14.19
2023-07-18T04:23:44.233Z,14.14
2023-07-18T04:26:13.808Z,14.21
2023-07-18T04:28:41.847Z,14.25
2023-07-18T04:31:09.696Z,14.33
2023-07-18T04:33:40.826Z,14.28
2023-07-18T04:36:10.084Z,14.35
2023-07-18T04:38:39.097Z,14.37
2023-07-18T04:41:06.850Z,14.35
2023-07-18T04:43:34.692Z,14.32
2023-07-18T04:46:02.848Z,14.31
2023-07-18T04:48:30.785Z,14.35
2023-07-18T04:51:01.782Z,14.27
2023-07-18T04:53:30.918Z,14.35
2023-07-18T04:55:58.981Z,14.37
2023-07-18T04:58:27.939Z,14.43
2023-07-18T05:00:58.107Z,14.35
2023-07-18T05:03:26.660Z,14.36
2023-07-18T05:05:55.167Z,14.44
2023-07-18T05:08:24.326Z,14.43
2023-07-18T05:10:52.393Z,14.53
2023-07-18T05:13:20.140Z,14.54
2023-07-18T05:15:47.998Z,14.66
2023-07-18T05:18:15.689Z,14.59
2023-07-18T05:20:43.491Z,14.64
2023-07-18T05:23:11.753Z,14.64
2023-07-18T05:25:41.253Z,14.62
2023-07-18T05:28:09.231Z,14.74
2023-07-18T05:30:37.216Z,14.81
2023-07-18T05:33:05.105Z,14.82
2023-07-18T05:35:33.048Z,14.91
2023-07-18T05:38:02.722Z,14.96
2023-07-18T05:40:30.563Z,15.02
2023-07-18T05:42:59.709Z,15.03
2023-07-18T05:45:27.778Z,15.05
2023-07-18T05:47:55.759Z,15.15
2023-07-18T05:50:23.519Z,15.15
2023-07-18T05:52:51.391Z,15.17
2023-07-18T05:55:19.509Z,15.44
2023-07-18T05:57:47.643Z,15.39
2023-07-18T06:00:18.354Z,15.42
2023-07-18T06:02:49.070Z,15.55
2023-07-18T06:05:16.887Z,15.70
2023-07-18T06:07:44.752Z,15.80
2023-07-18T06:10:13.752Z,15.86
2023-07-18T06:12:41.604Z,16.01
2023-07-18T06:15:10.453Z,15.97
2023-07-18T06:17:39.690Z,16.06
2023-07-18T06:20:12.974Z,16.24
2023-07-18T06:22:40.925Z,16.14
2023-07-18T06:25:10.069Z,16.12
2023-07-18T06:27:38.647Z,16.11
2023-07-18T06:30:09.314Z,16.14
2023-07-18T06:32:37.050Z,16.31
2023-07-18T06:35:23.108Z,16.38
2023-07-18T06:37:52.139Z,16.31
2023-07-18T06:40:20.226Z,16.42
2023-07-18T06:42:48.024Z,16.53
2023-07-18T06:45:16.021Z,16.48
2023-07-18T06:47:44.701Z,16.67
2023-07-18T06:50:15.124Z,16.70
2023-07-18T06:52:43.052Z,16.76
2023-07-18T06:55:12.154Z,16.85
2023-07-18T06:57:42.720Z,16.81
2023-07-18T07:00:14.050Z,16.95
2023-07-18T07:02:42.144Z,16.96
2023-07-18T07:05:10.425Z,17.02
2023-07-18T07:07:39.634Z,17.08
2023-07-18T07:10:09.810Z,17.12
2023-07-18T07:12:37.924Z,17.17
2023-07-18T07:15:06.805Z,17.23
2023-07-18T07:17:34.886Z,17.31
2023-07-18T07:20:02.975Z,17.44
2023-07-18T07:22:30.811Z,17.45
2023-07-18T07:25:00.416Z,17.45
2023-07-18T07:27:28.174Z,17.38
2023-07-18T07:29:55.986Z,17.44
2023-07-18T07:32:23.813Z,17.48
2023-07-18T07:34:51.641Z,17.49
2023-07-18T07:37:19.808Z,17.55
2023-07-18T07:39:47.955Z,17.73
2023-07-18T07:42:17.617Z,17.66
2023-07-18T07:44:47.792Z,17.81
2023-07-18T07:47:15.553Z,17.78
2023-07-18T07:49:43.430Z,17.85
2023-07-18T07:52:11.472Z,17.95
2023-07-18T07:54:39.406Z,17.93
2023-07-18T07:57:07.949Z,18.12
2023-07-18T07:59:37.058Z,18.14
2023-07-18T08:02:05.245Z,18.27
2023-07-18T08:04:33.534Z,18.11
2023-07-18T08:07:01.442Z,18.22
2023-07-18T08:09:29.357Z,18.46
2023-07-18T08:11:57.077Z,18.47
2023-07-18T08:14:24.829Z,18.54
2023-07-18T08:16:54.185Z,18.65
2023-07-18T08:19:22.509Z,18.64
2023-07-18T08:21:50.419Z,18.83
2023-07-18T08:24:18.610Z,18.83
2023-07-18T08:26:46.479Z,19.01
2023-07-18T08:29:14.324Z,19.04
2023-07-18T08:31:42.217Z,18.98
2023-07-18T08:34:11.503Z,18.95
2023-07-18T08:36:40.600Z,19.35
2023-07-18T08:39:11.819Z,19.24
2023-07-18T08:41:41.776Z,19.22
2023-07-18T08:44:10.978Z,19.53
2023-07-18T08:46:39.135Z,19.85
2023-07-18T08:49:07.869Z,19.78
2023-07-18T08:51:37.145Z,19.66
2023-07-18T08:54:05.126Z,19.62
2023-07-18T08:56:33.103Z,19.70
2023-07-18T08:59:02.476Z,20.05
2023-07-18T09:01:30.368Z,19.91
2023-07-18T09:03:58.538Z,19.90
2023-07-18T09:06:26.363Z,19.89
2023-07-18T09:08:56.263Z,20.03
2023-07-18T09:11:25.798Z,20.24
2023-07-18T09:13:53.723Z,19.95
2023-07-18T09:16:23.129Z,19.97
2023-07-18T09:18:52.378Z,20.05
2023-07-18T09:21:21.035Z,20.15
2023-07-18T09:23:49.998Z,20.41
2023-07-18T09:26:20.383Z,20.42
2023-07-18T09:28:48.634Z,20.21
2023-07-18T09:31:21.194Z,20.40
2023-07-18T09:33:50.643Z,20.43
2023-07-18T09:36:19.659Z,20.43
2023-07-18T09:38:49.098Z,20.29
2023-07-18T09:41:21.596Z,20.37
2023-07-18T09:44:02.733Z,20.35
2023-07-18T09:46:42.426Z,20.44
2023-07-18T09:49:14.835Z,20.45
2023-07-18T09:51:49.629Z,20.59
2023-07-18T09:54:18.055Z,20.79
2023-07-18T09:56:48.778Z,21.01
2023-07-18T09:59:17.681Z,20.88
2023-07-18T10:01:46.627Z,21.06
2023-07-18T10:04:15.094Z,20.87
2023-07-18T10:06:43.408Z,21.01
2023-07-18T10:09:11.329Z,21.01
2023-07-18T10:12:12.072Z,20.96
2023-07-18T10:14:51.281Z,21.24
2023-07-18T10:17:37.417Z,21.16
2023-07-18T10:20:12.834Z,21.06
2023-07-18T10:22:48.483Z,20.87
2023-07-18T10:25:19.848Z,20.73
2023-07-18T10:27:50.595Z,20.68
2023-07-18T10:30:19.895Z,20.60
2023-07-18T10:32:54.953Z,20.78
2023-07-18T10:35:25.886Z,20.73
2023-07-18T10:37:55.120Z,20.70
2023-07-18T10:40:38.046Z,20.68
2023-07-18T10:43:10.565Z,20.62
2023-07-18T10:45:39.598Z,20.62
2023-07-18T10:48:13.286Z,20.96
2023-07-18T10:50:41.400Z,20.96
2023-07-18T10:53:12.555Z,20.80
2023-07-18T10:55:40.540Z,20.87
2023-07-18T10:58:17.749Z,20.91
2023-07-18T11:00:46.027Z,21.11
2023-07-18T11:03:21.257Z,21.08
2023-07-18T11:05:50.407Z,21.21
2023-07-18T11:08:26.495Z,21.30
2023-07-18T11:10:55.808Z,21.08
2023-07-18T11:13:30.524Z,21.07
2023-07-18T11:15:59.647Z,21.00
2023-07-18T11:18:27.783Z,20.98
2023-07-18T11:20:55.867Z,21.12
2023-07-18T11:23:23.794Z,21.69
2023-07-18T11:25:51.607Z,21.41
2023-07-18T11:28:19.348Z,21.37
2023-07-18T11:30:48.701Z,21.38
2023-07-18T11:33:16.633Z,21.61
2023-07-18T11:35:48.054Z,21.57
2023-07-18T11:38:19.715Z,21.52
2023-07-18T11:40:47.423Z,21.54
2023-07-18T11:43:18.986Z,21.60
2023-07-18T11:45:49.118Z,21.46
2023-07-18T11:48:21.275Z,21.62
2023-07-18T11:50:50.644Z,21.80
2023-07-18T11:53:26.524Z,21.69
2023-07-18T11:55:55.741Z,22.09
2023-07-18T11:58:25.523Z,22.09
2023-07-18T12:00:59.520Z,22.31
2023-07-18T12:03:27.414Z,22.05
2023-07-18T12:05:55.274Z,22.28
2023-07-18T12:08:25.718Z,22.22
2023-07-18T12:11:08.832Z,22.35
2023-07-18T12:13:38.242Z,22.48
2023-07-18T12:16:07.752Z,22.68
2023-07-18T12:18:36.297Z,22.77
2023-07-18T12:21:04.098Z,22.54
2023-07-18T12:23:32.155Z,22.83
2023-07-18T12:26:00.145Z,22.75
2023-07-18T12:28:28.220Z,22.64
2023-07-18T12:30:56.035Z,22.62
2023-07-18T12:33:25.429Z,22.53
2023-07-18T12:35:53.243Z,22.65
2023-07-18T12:38:23.337Z,23.16
2023-07-18T12:40:53.234Z,23.39
2023-07-18T12:43:21.016Z,23.35
2023-07-18T12:45:48.782Z,23.48
2023-07-18T12:48:17.171Z,23.27
2023-07-18T12:50:47.292Z,23.41
2023-07-18T12:53:15.102Z,23.38
2023-07-18T12:55:42.946Z,23.29
2023-07-18T12:58:10.740Z,23.59
2023-07-18T13:00:38.642Z,23.38
2023-07-18T13:03:06.908Z,23.47
2023-07-18T13:05:34.756Z,23.57
2023-07-18T13:08:03.796Z,23.08
2023-07-18T13:10:31.582Z,23.34
2023-07-18T13:12:59.346Z,23.49
2023-07-18T13:15:27.177Z,23.42
2023-07-18T13:17:55.261Z,23.45
2023-07-18T13:20:23.495Z,23.96
2023-07-18T13:22:52.161Z,23.57
2023-07-18T13:25:21.940Z,23.87
2023-07-18T13:27:49.814Z,23.81
2023-07-18T13:30:17.989Z,23.86
2023-07-18T13:32:47.712Z,23.64
2023-07-18T13:35:15.538Z,23.90
2023-07-18T13:37:43.292Z,23.92
2023-07-18T13:40:11.671Z,23.89
2023-07-18T13:42:40.865Z,23.81
2023-07-18T13:45:11.231Z,23.98
2023-07-18T13:47:39.180Z,24.05
2023-07-18T13:50:17.789Z,23.79
2023-07-18T13:52:47.077Z,23.68
2023-07-18T13:55:15.005Z,23.66
2023-07-18T13:57:44.131Z,23.77
2023-07-18T14:00:13.191Z,23.99
2023-07-18T14:02:40.985Z,24.07
2023-07-18T14:05:10.106Z,24.09
2023-07-18T14:07:37.821Z,23.93
2023-07-18T14:10:06.326Z,23.95
2023-07-18T14:12:34.233Z,23.76
2023-07-18T14:15:05.099Z,23.89
2023-07-18T14:17:33.015Z,23.84
2023-07-18T14:20:01.020Z,23.96
2023-07-18T14:22:28.917Z,23.97
2023-07-18T14:24:57.214Z,24.34
2023-07-18T14:27:25.089Z,24.06
2023-07-18T14:29:53.195Z,23.76
2023-07-18T14:32:22.615Z,24.09
2023-07-18T14:34:50.367Z,24.05
2023-07-18T14:37:18.729Z,23.88
2023-07-18T14:39:58.588Z,24.06
2023-07-18T14:42:26.584Z,23.85
2023-07-18T14:44:54.524Z,23.97
2023-07-18T14:47:23.848Z,24.08
2023-07-18T14:49:52.202Z,23.82
2023-07-18T14:52:20.238Z,23.98
2023-07-18T14:54:48.158Z,23.90
2023-07-18T14:57:16.216Z,23.87
2023-07-18T14:59:44.704Z,24.34
2023-07-18T15:02:12.684Z,24.29
2023-07-18T15:04:42.047Z,24.12
2023-07-18T15:07:10.429Z,24.14
2023-07-18T15:09:38.241Z,24.15
2023-07-18T15:12:06.668Z,23.90
2023-07-18T15:14:34.538Z,24.16
2023-07-18T15:17:02.260Z,24.43
2023-07-18T15:19:30.030Z,24.63
2023-07-18T15:21:59.376Z,24.41
2023-07-18T15:24:27.371Z,24.65
2023-07-18T15:26:55.325Z,24.44
2023-07-18T15:29:23.261Z,24.27
2023-07-18T15:31:51.203Z,24.22
2023-07-18T15:34:19.157Z,24.20
2023-07-18T15:36:47.408Z,24.08
2023-07-18T15:39:16.805Z,23.97
2023-07-18T15:41:44.659Z,24.16
2023-07-18T15:44:12.605Z,24.43
2023-07-18T15:46:40.513Z,24.10
2023-07-18T15:49:08.431Z,24.53
2023-07-18T15:51:36.319Z,24.36
2023-07-18T15:54:05.441Z,24.10
2023-07-18T15:56:34.683Z,23.94
2023-07-18T15:59:03.121Z,23.74
2023-07-18T16:01:31.053Z,23.84
2023-07-18T16:03:58.919Z,23.92
2023-07-18T16:06:26.922Z,24.13
2023-07-18T16:08:54.672Z,24.32
2023-07-18T16:11:22.516Z,24.28
2023-07-18T16:13:53.377Z,24.30
2023-07-18T16:16:25.149Z,24.14
2023-07-18T16:18:54.645Z,23.91
2023-07-18T16:21:22.572Z,23.85
2023-07-18T16:23:51.297Z,24.14
2023-07-18T16:26:20.525Z,24.08
2023-07-18T16:28:49.683Z,23.95
2023-07-18T16:31:20.321Z,23.92
2023-07-18T16:33:48.334Z,23.88
2023-07-18T16:36:16.172Z,24.38
2023-07-18T16:38:44.099Z,24.04
2023-07-18T16:41:12.095Z,24.07
2023-07-18T16:43:39.895Z,24.04
2023-07-18T16:46:07.798Z,23.92
2023-07-18T16:48:37.404Z,23.80
2023-07-18T16:51:05.449Z,24.18
2023-07-18T16:53:33.691Z,23.92
2023-07-18T16:56:02.597Z,24.10
2023-07-18T16:58:30.319Z,24.12
2023-07-18T17:00:58.150Z,23.87
2023-07-18T17:03:26.344Z,23.77
2023-07-18T17:05:56.396Z,24.23
2023-07-18T17:08:25.816Z,24.23
2023-07-18T17:10:54.077Z,24.02
2023-07-18T17:13:22.529Z,23.82
2023-07-18T17:15:50.545Z,24.05
2023-07-18T17:18:19.524Z,23.97
2023-07-18T17:20:47.308Z,23.81
2023-07-18T17:23:17.128Z,23.91
2023-07-18T17:25:45.262Z,23.98
2023-07-18T17:28:13.695Z,23.93
2023-07-18T17:30:41.560Z,23.94
2023-07-18T17:33:09.382Z,23.95
2023-07-18T17:35:39.235Z,23.74
2023-07-18T17:38:06.902Z,23.82
2023-07-18T17:40:36.313Z,23.64
2023-07-18T17:43:05.344Z,23.72
2023-07-18T17:45:33.349Z,23.84
2023-07-18T17:48:01.247Z,23.63
2023-07-18T17:50:29.135Z,23.57
2023-07-18T17:52:57.181Z,23.49
2023-07-18T17:55:25.685Z,23.75
2023-07-18T17:57:55.061Z,23.65
2023-07-18T18:00:26.680Z,23.69
2023-07-18T18:02:57.760Z,23.61
2023-07-18T18:05:37.761Z,23.48
2023-07-18T18:08:06.723Z,23.73
2023-07-18T18:10:34.848Z,23.54
2023-07-18T18:13:06.054Z,23.39
2023-07-18T18:15:33.923Z,23.40
2023-07-18T18:18:02.217Z,23.29
2023-07-18T18:20:30.684Z,23.35
2023-07-18T18:22:58.832Z,23.53
2023-07-18T18:25:28.304Z,23.52
2023-07-18T18:27:56.700Z,23.33
2023-07-18T18:30:26.158Z,23.26
2023-07-18T18:32:54.772Z,23.19
2023-07-18T18:35:23.084Z,23.26
2023-07-18T18:37:50.920Z,23.07
2023-07-18T18:40:19.604Z,22.89
2023-07-18T18:42:47.535Z,22.80
2023-07-18T18:45:15.995Z,22.80
2023-07-18T18:47:47.605Z,22.68
2023-07-18T18:50:18.146Z,22.63
2023-07-18T18:52:46.771Z,22.67
2023-07-18T18:55:20.160Z,22.60
2023-07-18T18:57:48.888Z,22.46
2023-07-18T19:00:17.776Z,22.39
2023-07-18T19:02:47.183Z,22.28
2023-07-18T19:05:16.062Z,22.17
2023-07-18T19:07:43.824Z,21.98
2023-07-18T19:10:11.789Z,21.88
2023-07-18T19:12:40.011Z,21.79
2023-07-18T19:15:09.346Z,21.69
2023-07-18T19:17:37.637Z,21.58
2023-07-18T19:20:09.409Z,21.39
2023-07-18T19:22:37.849Z,21.34
2023-07-18T19:25:08.933Z,21.22
2023-07-18T19:27:37.339Z,21.14
2023-07-18T19:30:06.188Z,21.05
2023-07-18T19:32:34.181Z,20.96
2023-07-18T19:35:03.678Z,20.89
2023-07-18T19:37:34.786Z,20.76
2023-07-18T19:40:03.576Z,20.72
2023-07-18T19:42:31.400Z,20.65
2023-07-18T19:45:01.527Z,20.51
2023-07-18T19:47:29.657Z,20.51
2023-07-18T19:49:57.521Z,20.41
2023-07-18T19:52:26.217Z,20.31
2023-07-18T19:54:55.501Z,20.26
2023-07-18T19:57:24.303Z,20.28
2023-07-18T19:59:52.929Z,20.13
2023-07-18T20:02:20.788Z,20.02
2023-07-18T20:04:48.954Z,19.96
2023-07-18T20:07:16.988Z,19.88
2023-07-18T20:09:45.768Z,19.78
2023-07-18T20:12:15.638Z,19.79
2023-07-18T20:14:46.038Z,19.72
2023-07-18T20:17:14.101Z,19.64
2023-07-18T20:19:42.203Z,19.57
2023-07-18T20:22:10.142Z,19.53
2023-07-18T20:24:38.021Z,19.49
2023-07-18T20:27:06.722Z,19.46
2023-07-18T20:29:36.750Z,19.39
2023-07-18T20:32:05.483Z,19.29
2023-07-18T20:34:33.485Z,19.26
2023-07-18T20:37:01.255Z,19.26
2023-07-18T20:39:29.101Z,19.18
2023-07-18T20:41:57.570Z,19.09
2023-07-18T20:44:29.904Z,19.05
2023-07-18T20:46:59.339Z,19.00
2023-07-18T20:49:28.089Z,18.94
2023-07-18T20:51:55.920Z,18.94
2023-07-18T20:54:23.793Z,18.89
2023-07-18T20:56:52.242Z,18.92
2023-07-18T20:59:20.314Z,19.01
2023-07-18T21:01:48.335Z,18.96
2023-07-18T21:04:20.817Z,18.96
2023-07-18T21:06:48.715Z,18.88
2023-07-18T21:09:16.487Z,18.76
2023-07-18T21:11:45.014Z,18.72
2023-07-18T21:14:12.943Z,18.63
2023-07-18T21:16:41.783Z,18.53
2023-07-18T21:19:10.309Z,18.41
2023-07-18T21:21:40.274Z,18.36
2023-07-18T21:24:08.076Z,18.26
2023-07-18T21:26:35.891Z,18.23
2023-07-18T21:29:05.558Z,18.17
2023-07-18T21:31:34.051Z,18.16
2023-07-18T21:34:02.552Z,18.10
2023-07-18T21:36:30.820Z,18.00
2023-07-18T21:39:00.095Z,17.99
2023-07-18T21:41:30.224Z,17.98
2023-07-18T21:43:58.085Z,17.95
2023-07-18T21:46:26.611Z,17.92
2023-07-18T21:48:55.183Z,17.87
2023-07-18T21:51:23.434Z,17.81
2023-07-18T21:53:51.230Z,17.71
2023-07-18T21:56:21.447Z,17.72
2023-07-18T21:58:49.513Z,17.63
2023-07-18T22:01:17.386Z,17.58
2023-07-18T22:03:45.415Z,17.58
2023-07-18T22:06:13.506Z,17.47
2023-07-18T22:08:41.347Z,17.40
2023-07-18T22:11:09.158Z,17.37
2023-07-18T22:13:38.500Z,17.34
2023-07-18T22:16:06.852Z,17.31
2023-07-18T22:18:35.453Z,17.33
2023-07-18T22:21:04.524Z,17.32
2023-07-18T22:23:32.443Z,17.24
2023-07-18T22:26:13.731Z,17.29
2023-07-18T22:28:44.223Z,17.38
2023-07-18T22:31:13.106Z,17.15
2023-07-18T22:33:42.206Z,17.14
2023-07-18T22:36:10.252Z,17.06
2023-07-18T22:38:38.136Z,17.01
2023-07-18T22:41:05.854Z,16.98
2023-07-18T22:43:34.156Z,17.04
2023-07-18T22:46:03.599Z,16.85
2023-07-18T22:48:31.460Z,16.86
2023-07-18T22:50:59.302Z,16.74
2023-07-18T22:53:27.335Z,16.78
2023-07-18T22:55:55.265Z,17.11
2023-07-18T22:58:23.137Z,17.03
2023-07-18T23:00:51.013Z,16.87
2023-07-18T23:03:20.436Z,16.77
2023-07-18T23:05:48.307Z,16.77
2023-07-18T23:08:16.271Z,16.71
2023-07-18T23:10:44.054Z,16.64
2023-07-18T23:13:12.837Z,16.64
2023-07-18T23:15:42.344Z,16.55
2023-07-18T23:18:10.124Z,16.47
2023-07-18T23:20:39.330Z,16.46
2023-07-18T23:23:07.298Z,16.48
2023-07-18T23:25:35.442Z,16.43
2023-07-18T23:28:05.602Z,16.39
2023-07-18T23:30:33.822Z,16.43
2023-07-18T23:33:01.784Z,16.41
2023-07-18T23:35:29.649Z,16.37
2023-07-18T23:37:58.979Z,16.37
2023-07-18T23:40:26.729Z,16.40
2023-07-18T23:42:54.498Z,16.33
2023-07-18T23:45:22.248Z,16.29
2023-07-18T23:47:50.076Z,16.32
2023-07-18T23:50:18.151Z,16.21
2023-07-18T23:52:45.983Z,16.29
2023-07-18T23:55:15.206Z,16.19
2023-07-18T23:57:43.216Z,16.20
